Time;durP1;ratioP1;P1;durP2;ratioP2;P2;SDS_P1;SDS_P2;PMS_P1;PMS_P2;Temp;Humidity;BMP_temperature;BMP_pressure;BME280_temperature;BME280_humidity;BME280_pressure;Samples;Min_cycle;Max_cycle;Signal;HPM_P1;HPM_P2
2021/03/06 00:00:38;;;;;;;7.30;4.23;;;0.80;1.00;;;;;;5004304;28;20191;-73
2021/03/06 00:03:04;;;;;;;5.07;4.17;;;0.80;1.00;;;;;;5021804;28;20187;-73
2021/03/06 00:05:30;;;;;;;10.20;6.90;;;0.80;1.00;;;;;;5027010;28;20187;-73
2021/03/06 00:07:56;;;;;;;13.40;8.00;;;0.90;1.00;;;;;;5011711;28;20527;-73
2021/03/06 00:10:22;;;;;;;9.83;7.10;;;0.80;1.00;;;;;;5031717;28;20453;-72
2021/03/06 00:12:49;;;;;;;6.93;6.20;;;0.80;1.00;;;;;;5032592;28;21131;-72
2021/03/06 00:15:22;;;;;;;9.00;6.93;;;0.70;1.00;;;;;;5028455;28;20466;-73
2021/03/06 00:17:47;;;;;;;12.03;7.90;;;0.80;1.00;;;;;;5025915;28;20619;-73
2021/03/06 00:20:13;;;;;;;9.90;6.63;;;0.70;1.00;;;;;;5024780;28;20437;-73
2021/03/06 00:22:39;;;;;;;6.30;5.70;;;0.60;1.00;;;;;;5029345;28;20553;-72
2021/03/06 00:25:08;;;;;;;4.53;4.13;;;0.50;1.00;;;;;;5023603;28;20445;-73
2021/03/06 00:27:34;;;;;;;7.13;5.00;;;0.50;1.00;;;;;;5021297;28;20379;-73
2021/03/06 00:30:00;;;;;;;9.80;5.97;;;0.50;1.00;;;;;;5020480;28;20922;-72
2021/03/06 00:32:25;;;;;;;6.77;5.33;;;0.40;1.00;;;;;;5024223;28;20473;-73
2021/03/06 00:34:51;;;;;;;10.30;5.70;;;0.50;1.00;;;;;;5023224;28;20207;-72
2021/03/06 00:37:17;;;;;;;5.53;5.03;;;0.40;1.00;;;;;;5027513;28;20303;-72
2021/03/06 00:39:42;;;;;;;9.70;5.43;;;0.40;1.00;;;;;;5023719;28;20700;-72
2021/03/06 00:42:08;;;;;;;9.03;5.90;;;0.40;1.00;;;;;;5021900;28;20175;-72
2021/03/06 00:44:34;;;;;;;8.70;5.50;;;0.30;1.00;;;;;;5022293;28;20191;-72
2021/03/06 00:46:59;;;;;;;8.27;5.67;;;0.30;1.00;;;;;;5019949;28;24712;-72
2021/03/06 00:49:25;;;;;;;9.00;6.90;;;0.30;1.00;;;;;;5025014;28;20226;-72
2021/03/06 00:51:51;;;;;;;12.63;6.37;;;0.30;1.00;;;;;;5026815;28;20220;-72
2021/03/06 00:54:19;;;;;;;8.30;6.93;;;0.40;1.00;;;;;;5023426;28;20342;-72
2021/03/06 00:56:47;;;;;;;12.83;7.13;;;0.30;1.00;;;;;;5015794;28;20442;-71
2021/03/06 00:59:15;;;;;;;10.03;6.67;;;0.40;1.00;;;;;;5035474;28;20449;-72
2021/03/06 01:01:40;;;;;;;11.80;7.63;;;0.30;1.00;;;;;;5030106;28;20441;-72
2021/03/06 01:04:06;;;;;;;18.10;9.47;;;0.30;1.00;;;;;;5022221;28;20176;-71
2021/03/06 01:06:32;;;;;;;13.27;8.33;;;0.30;1.00;;;;;;5023899;28;21368;-72
2021/03/06 01:08:58;;;;;;;14.50;10.30;;;0.20;1.00;;;;;;5022009;28;20746;-72
2021/03/06 01:11:23;;;;;;;14.33;9.47;;;0.30;1.00;;;;;;5022626;28;20359;-72
2021/03/06 01:13:49;;;;;;;11.40;7.97;;;0.30;1.00;;;;;;5027567;28;20195;-71
2021/03/06 01:16:15;;;;;;;9.50;7.17;;;0.30;1.00;;;;;;5018820;28;20553;-71
2021/03/06 01:18:40;;;;;;;9.87;7.67;;;0.30;1.00;;;;;;5022459;28;20682;-71
2021/03/06 01:21:06;;;;;;;9.03;7.07;;;0.30;1.00;;;;;;5004583;28;20684;-72
2021/03/06 01:23:32;;;;;;;12.07;7.87;;;0.20;1.00;;;;;;5023718;28;20221;-72
2021/03/06 01:25:57;;;;;;;10.27;7.40;;;0.10;1.00;;;;;;5020794;28;20212;-72
2021/03/06 01:28:23;;;;;;;10.53;7.10;;;0.00;1.00;;;;;;5020943;28;20270;-72
2021/03/06 01:30:49;;;;;;;14.50;8.17;;;0.10;1.00;;;;;;5023569;28;20191;-71
2021/03/06 01:33:15;;;;;;;8.03;6.57;;;0.10;1.00;;;;;;5021170;28;20202;-72
2021/03/06 01:35:41;;;;;;;9.77;7.83;;;0.30;1.00;;;;;;5021430;28;20924;-72
2021/03/06 01:38:06;;;;;;;10.83;8.10;;;0.10;1.00;;;;;;5026858;28;20738;-72
2021/03/06 01:40:37;;;;;;;14.10;8.57;;;0.10;1.00;;;;;;5029159;28;20182;-72
2021/03/06 01:43:06;;;;;;;10.80;6.67;;;0.10;1.00;;;;;;5026739;28;20497;-71
2021/03/06 01:45:32;;;;;;;7.27;6.03;;;0.10;1.00;;;;;;5024274;28;20876;-71
2021/03/06 01:47:58;;;;;;;11.00;6.80;;;0.10;1.00;;;;;;5026920;28;20500;-72
2021/03/06 01:50:29;;;;;;;15.77;9.27;;;0.10;1.00;;;;;;5027281;28;20457;-72
2021/03/06 01:52:57;;;;;;;11.00;6.63;;;0.10;1.00;;;;;;5031320;28;20465;-72
2021/03/06 01:55:23;;;;;;;9.70;7.13;;;0.10;1.00;;;;;;5009823;28;20473;-71
2021/03/06 01:57:50;;;;;;;10.77;7.23;;;0.10;1.00;;;;;;5032353;28;20485;-72
2021/03/06 02:00:17;;;;;;;11.50;8.33;;;0.20;1.00;;;;;;5028929;28;20456;-72
2021/03/06 02:02:43;;;;;;;11.13;8.10;;;0.20;1.00;;;;;;5026393;28;20449;-72
2021/03/06 02:05:10;;;;;;;11.43;7.27;;;0.00;1.00;;;;;;5026689;28;20448;-72
2021/03/06 02:07:35;;;;;;;8.30;6.13;;;-0.20;1.00;;;;;;5028514;28;20779;-72
2021/03/06 02:10:03;;;;;;;9.07;7.40;;;-0.20;1.00;;;;;;5022674;28;20805;-74
2021/03/06 02:13:00;;;;;;;10.80;6.50;;;-0.30;1.00;;;;;;5027419;28;20183;-72
2021/03/06 02:15:45;;;;;;;12.47;6.63;;;-0.30;1.00;;;;;;5023734;28;20827;-72
2021/03/06 02:18:21;;;;;;;8.03;6.17;;;-0.10;1.00;;;;;;5024110;28;20434;-72
2021/03/06 02:20:51;;;;;;;8.57;5.90;;;0.00;1.00;;;;;;5009230;28;20669;-72
2021/03/06 02:23:45;;;;;;;11.23;6.60;;;-0.20;1.00;;;;;;5024334;28;20793;-72
2021/03/06 02:26:23;;;;;;;8.80;5.70;;;-0.30;1.00;;;;;;5025616;28;20567;-72
2021/03/06 02:29:01;;;;;;;7.77;5.10;;;-0.20;1.00;;;;;;5021259;28;20471;-72
2021/03/06 02:31:30;;;;;;;9.00;5.47;;;-0.30;1.00;;;;;;5024150;28;20442;-72
2021/03/06 02:34:04;;;;;;;8.07;5.87;;;-0.30;1.00;;;;;;5024754;28;20558;-72
2021/03/06 02:36:33;;;;;;;7.53;5.10;;;-0.20;1.00;;;;;;5031116;28;22485;-72
2021/03/06 02:39:02;;;;;;;6.50;4.93;;;-0.10;1.00;;;;;;5024044;28;20461;-71
2021/03/06 02:41:30;;;;;;;8.20;5.57;;;0.00;1.00;;;;;;5024765;28;20507;-72
2021/03/06 02:43:57;;;;;;;6.50;5.57;;;0.10;1.00;;;;;;5029369;28;20787;-72
2021/03/06 02:46:25;;;;;;;11.73;5.10;;;0.00;1.00;;;;;;5027911;28;20853;-72
2021/03/06 02:48:53;;;;;;;9.10;6.60;;;0.00;1.00;;;;;;5024957;28;20688;-72
2021/03/06 02:51:19;;;;;;;10.43;6.27;;;0.00;1.00;;;;;;5023199;28;20773;-72
2021/03/06 02:53:45;;;;;;;9.20;5.53;;;0.00;1.00;;;;;;5022950;28;21022;-73
2021/03/06 02:56:11;;;;;;;8.90;5.07;;;0.00;1.00;;;;;;5021343;28;21469;-72
2021/03/06 02:58:45;;;;;;;8.63;5.90;;;-0.20;1.00;;;;;;5009018;28;20521;-72
2021/03/06 03:01:30;;;;;;;10.40;5.43;;;-0.30;1.00;;;;;;5027394;28;20234;-72
2021/03/06 03:04:18;;;;;;;8.07;4.90;;;-0.40;1.00;;;;;;5030108;28;20446;-72
2021/03/06 03:06:48;;;;;;;8.20;6.10;;;-0.30;1.00;;;;;;5023026;28;20439;-72
2021/03/06 03:09:18;;;;;;;6.93;5.57;;;-0.30;1.00;;;;;;5027773;28;20470;-72
2021/03/06 03:12:14;;;;;;;8.80;5.37;;;-0.40;1.00;;;;;;5026104;28;20447;-72
2021/03/06 03:14:51;;;;;;;8.70;5.63;;;-0.50;1.00;;;;;;5009335;28;20477;-73
2021/03/06 03:17:24;;;;;;;10.60;5.80;;;-0.60;1.00;;;;;;5027021;28;20521;-72
2021/03/06 03:20:01;;;;;;;5.90;4.80;;;-0.60;1.00;;;;;;5023507;28;20501;-72
2021/03/06 03:22:31;;;;;;;7.20;4.77;;;-0.70;1.00;;;;;;5027343;28;20991;-72
2021/03/06 03:25:00;;;;;;;7.00;5.07;;;-0.70;1.00;;;;;;5026177;28;20934;-72
2021/03/06 03:27:28;;;;;;;6.37;3.67;;;-0.60;1.00;;;;;;5008187;28;22780;-72
2021/03/06 03:29:56;;;;;;;4.33;3.93;;;-0.70;1.00;;;;;;5020796;28;20576;-72
2021/03/06 03:32:23;;;;;;;5.47;4.30;;;-0.70;1.00;;;;;;5021210;28;20825;-72
2021/03/06 03:34:50;;;;;;;5.47;4.40;;;-0.60;1.00;;;;;;5020677;28;20847;-72
2021/03/06 03:37:17;;;;;;;6.67;4.80;;;-0.50;1.00;;;;;;5019572;28;20447;-72
2021/03/06 03:39:43;;;;;;;6.93;4.10;;;-0.60;1.00;;;;;;5023014;28;20785;-72
2021/03/06 03:42:09;;;;;;;7.10;3.90;;;-0.60;1.00;;;;;;5022846;28;20668;-72
2021/03/06 03:44:36;;;;;;;6.40;4.10;;;-0.50;1.00;;;;;;5020607;28;20764;-72
2021/03/06 03:47:03;;;;;;;6.60;4.27;;;-0.50;1.00;;;;;;5017728;28;21004;-73
2021/03/06 03:49:29;;;;;;;6.67;4.20;;;-0.50;1.00;;;;;;5022706;28;20572;-72
2021/03/06 03:51:55;;;;;;;7.60;4.03;;;-0.50;1.00;;;;;;5021127;28;20454;-72
2021/03/06 03:54:21;;;;;;;5.70;4.20;;;-0.50;1.00;;;;;;5019639;28;20622;-72
2021/03/06 03:56:48;;;;;;;5.33;3.87;;;-0.50;1.00;;;;;;5023180;28;20451;-72
2021/03/06 03:59:14;;;;;;;7.17;4.00;;;-0.60;1.00;;;;;;5021555;28;20448;-72
2021/03/06 04:01:45;;;;;;;8.13;4.50;;;-0.50;1.00;;;;;;5018986;28;20839;-73
2021/03/06 04:04:31;;;;;;;6.40;4.10;;;-0.60;1.00;;;;;;5021703;28;23233;-72
2021/03/06 04:06:59;;;;;;;6.10;3.40;;;-0.50;1.00;;;;;;5020899;28;21798;-72
2021/03/06 04:09:25;;;;;;;8.13;3.90;;;-0.60;1.00;;;;;;5021773;28;20731;-72
2021/03/06 04:11:51;;;;;;;4.80;4.20;;;-0.60;1.00;;;;;;5020264;28;20480;-72
2021/03/06 04:14:17;;;;;;;6.20;3.90;;;-0.60;1.00;;;;;;5029833;28;20478;-72
2021/03/06 04:16:43;;;;;;;7.50;4.10;;;-0.60;1.00;;;;;;5021234;28;20458;-72
2021/03/06 04:19:09;;;;;;;3.90;3.60;;;-0.60;1.00;;;;;;5022108;28;20499;-72
2021/03/06 04:21:35;;;;;;;6.43;4.20;;;-0.60;1.00;;;;;;5025717;28;20190;-72
2021/03/06 04:24:00;;;;;;;5.97;3.20;;;-0.50;1.00;;;;;;5019274;28;21085;-73
2021/03/06 04:26:26;;;;;;;8.53;4.10;;;-0.50;1.00;;;;;;5020681;28;20238;-73
2021/03/06 04:28:52;;;;;;;4.77;4.13;;;-0.50;1.00;;;;;;5022449;28;20232;-73
2021/03/06 04:31:18;;;;;;;6.10;3.63;;;-0.50;1.00;;;;;;5027431;28;20478;-73
2021/03/06 04:33:44;;;;;;;7.13;5.53;;;-0.50;1.00;;;;;;5019299;28;20203;-73
2021/03/06 04:36:10;;;;;;;6.60;4.63;;;-0.40;1.00;;;;;;5004886;28;21059;-73
2021/03/06 04:38:36;;;;;;;6.20;4.53;;;-0.50;1.00;;;;;;5020048;28;20575;-73
2021/03/06 04:41:01;;;;;;;5.27;4.77;;;-0.50;1.00;;;;;;5017630;28;20459;-73
2021/03/06 04:43:27;;;;;;;10.80;4.20;;;-0.50;1.00;;;;;;5024785;28;20733;-72
2021/03/06 04:45:53;;;;;;;7.70;4.50;;;-0.50;1.00;;;;;;5018104;28;20474;-73
2021/03/06 04:48:19;;;;;;;12.23;4.20;;;-0.50;1.00;;;;;;5020143;28;20238;-73
2021/03/06 04:50:45;;;;;;;5.77;4.17;;;-0.50;1.00;;;;;;5004348;28;20948;-73
2021/03/06 04:53:10;;;;;;;5.67;4.67;;;-0.40;1.00;;;;;;5018043;28;21151;-73
2021/03/06 04:55:36;;;;;;;7.27;4.87;;;-0.40;1.00;;;;;;5022435;28;20215;-73
2021/03/06 04:58:02;;;;;;;5.07;3.97;;;-0.50;1.00;;;;;;5020910;28;20189;-72
2021/03/06 05:00:28;;;;;;;6.83;4.83;;;-0.40;1.00;;;;;;5021501;28;20260;-73
2021/03/06 05:02:55;;;;;;;5.70;3.87;;;-0.40;1.00;;;;;;5018399;28;20445;-73
2021/03/06 05:05:20;;;;;;;7.97;4.63;;;-0.50;1.00;;;;;;5021294;28;20239;-74
2021/03/06 05:07:46;;;;;;;6.47;4.47;;;-0.50;1.00;;;;;;5017558;28;20978;-73
2021/03/06 05:10:12;;;;;;;8.60;5.00;;;-0.60;1.00;;;;;;5026595;28;20803;-72
2021/03/06 05:12:38;;;;;;;8.67;4.40;;;-0.70;1.00;;;;;;5023500;28;20199;-72
2021/03/06 05:15:05;;;;;;;6.80;3.60;;;-0.60;1.00;;;;;;5021504;28;20470;-72
2021/03/06 05:17:31;;;;;;;11.10;4.30;;;-0.60;1.00;;;;;;5022755;28;20535;-73
2021/03/06 05:19:57;;;;;;;6.20;4.30;;;-0.60;1.00;;;;;;5017536;28;20453;-73
2021/03/06 05:22:23;;;;;;;6.17;3.63;;;-0.70;1.00;;;;;;5023937;28;20475;-73
2021/03/06 05:24:48;;;;;;;6.87;3.63;;;-0.60;1.00;;;;;;5025490;28;20679;-73
2021/03/06 05:27:15;;;;;;;5.60;3.33;;;-0.70;1.00;;;;;;5023845;28;20489;-73
2021/03/06 05:29:41;;;;;;;9.37;5.10;;;-0.60;1.00;;;;;;5022091;28;20189;-73
2021/03/06 05:32:07;;;;;;;3.90;3.57;;;-0.70;1.00;;;;;;5024371;28;21170;-73
2021/03/06 05:34:34;;;;;;;6.40;4.20;;;-0.60;1.00;;;;;;5018825;28;20223;-73
2021/03/06 05:37:00;;;;;;;9.90;4.97;;;-0.50;1.00;;;;;;5025298;28;20445;-73
2021/03/06 05:39:26;;;;;;;10.50;4.80;;;-0.60;1.00;;;;;;5023287;28;20534;-72
2021/03/06 05:41:53;;;;;;;8.67;4.80;;;-0.60;1.00;;;;;;5025858;28;20456;-72
2021/03/06 05:44:19;;;;;;;11.10;4.77;;;-0.70;1.00;;;;;;5021833;28;20188;-73
2021/03/06 05:46:45;;;;;;;8.37;4.67;;;-0.70;1.00;;;;;;5006732;28;20796;-73
2021/03/06 05:49:13;;;;;;;6.37;4.53;;;-0.80;1.00;;;;;;5024967;28;20471;-73
2021/03/06 05:51:40;;;;;;;6.13;5.53;;;-1.00;1.00;;;;;;5026878;28;20514;-72
2021/03/06 05:54:13;;;;;;;6.30;4.63;;;-0.90;1.00;;;;;;5025013;28;20461;-73
2021/03/06 05:56:44;;;;;;;8.00;4.97;;;-0.90;1.00;;;;;;5023852;28;20474;-72
2021/03/06 05:59:13;;;;;;;8.13;5.17;;;-0.80;1.00;;;;;;5023372;28;20441;-72
2021/03/06 06:01:43;;;;;;;8.00;4.53;;;-0.70;1.00;;;;;;5024177;28;20462;-72
2021/03/06 06:04:10;;;;;;;6.53;4.97;;;-0.70;1.00;;;;;;5022038;28;20854;-72
2021/03/06 06:06:38;;;;;;;9.83;5.23;;;-0.70;1.00;;;;;;5023544;28;20710;-73
2021/03/06 06:09:06;;;;;;;6.43;4.63;;;-0.70;1.00;;;;;;5022390;28;20519;-73
2021/03/06 06:11:32;;;;;;;6.77;4.60;;;-0.70;1.00;;;;;;5025582;28;20430;-72
2021/03/06 06:13:59;;;;;;;5.50;4.17;;;-0.80;1.00;;;;;;5022436;28;20434;-73
2021/03/06 06:16:32;;;;;;;4.97;4.00;;;-0.80;1.00;;;;;;5016699;28;20445;-73
2021/03/06 06:19:03;;;;;;;8.20;4.70;;;-0.80;1.00;;;;;;5011128;28;20468;-73
2021/03/06 06:21:47;;;;;;;6.13;4.20;;;-0.80;1.00;;;;;;5004628;28;20441;-73
2021/03/06 06:24:18;;;;;;;11.30;4.80;;;-0.80;1.00;;;;;;5013546;28;20465;-73
2021/03/06 06:26:53;;;;;;;8.50;4.67;;;-0.90;1.00;;;;;;5016571;28;20512;-73
2021/03/06 06:29:37;;;;;;;10.53;4.77;;;-0.90;1.00;;;;;;5023035;28;20449;-73
2021/03/06 06:32:05;;;;;;;6.57;4.90;;;-0.70;1.00;;;;;;5022907;28;20448;-73
2021/03/06 06:34:30;;;;;;;6.43;4.80;;;-0.70;1.00;;;;;;5019225;28;20464;-72
2021/03/06 06:36:56;;;;;;;9.80;4.53;;;-0.80;1.00;;;;;;5016034;28;21028;-73
2021/03/06 06:39:31;;;;;;;9.40;5.70;;;-0.80;1.00;;;;;;5020131;28;20209;-73
2021/03/06 06:41:59;;;;;;;7.47;4.63;;;-0.90;1.00;;;;;;5023222;28;21254;-72
2021/03/06 06:44:27;;;;;;;8.00;6.27;;;-0.80;1.00;;;;;;5031087;28;20440;-72
2021/03/06 06:46:54;;;;;;;6.83;5.53;;;-0.80;1.00;;;;;;5031281;28;20668;-73
2021/03/06 06:49:20;;;;;;;7.50;5.00;;;-0.80;1.00;;;;;;5030881;28;20444;-73
2021/03/06 06:51:59;;;;;;;7.13;5.13;;;-0.80;1.00;;;;;;5020384;28;20912;-73
2021/03/06 06:54:25;;;;;;;6.77;4.30;;;-0.70;1.00;;;;;;5018912;28;20225;-73
2021/03/06 06:56:54;;;;;;;8.67;5.67;;;-0.80;1.00;;;;;;5020536;28;20433;-73
2021/03/06 06:59:20;;;;;;;10.00;6.67;;;-0.80;1.00;;;;;;5022199;28;20450;-73
2021/03/06 07:01:46;;;;;;;5.67;5.13;;;-0.80;1.00;;;;;;5022756;28;20477;-73
2021/03/06 07:04:12;;;;;;;8.47;6.20;;;-0.80;1.00;;;;;;5020888;28;20572;-73
2021/03/06 07:06:38;;;;;;;9.60;6.13;;;-0.80;1.00;;;;;;5021911;28;20183;-73
2021/03/06 07:09:14;;;;;;;10.17;6.20;;;-0.70;1.00;;;;;;5018351;28;20778;-73
2021/03/06 07:11:42;;;;;;;7.83;6.53;;;-0.70;1.00;;;;;;5020503;28;20484;-72
2021/03/06 07:14:07;;;;;;;8.03;6.70;;;-0.70;1.00;;;;;;5019873;28;22733;-73
2021/03/06 07:16:59;;;;;;;10.10;6.20;;;-0.60;1.00;;;;;;5020183;28;20442;-72
2021/03/06 07:19:27;;;;;;;8.27;5.70;;;-0.60;1.00;;;;;;5019451;28;20496;-73
2021/03/06 07:21:53;;;;;;;9.00;5.30;;;-0.60;1.00;;;;;;5019420;28;21796;-73
2021/03/06 07:24:19;;;;;;;11.53;5.87;;;-0.60;1.00;;;;;;5021264;28;22051;-73
2021/03/06 07:26:45;;;;;;;12.00;6.17;;;-0.60;1.00;;;;;;5020641;28;24747;-72
2021/03/06 07:29:10;;;;;;;10.70;6.60;;;-0.60;1.00;;;;;;5025175;28;20183;-73
2021/03/06 07:31:38;;;;;;;9.20;6.40;;;-0.60;1.00;;;;;;5016226;28;20488;-73
2021/03/06 07:34:09;;;;;;;10.60;7.30;;;-0.60;1.00;;;;;;5018239;28;20864;-72
2021/03/06 07:36:37;;;;;;;11.07;6.93;;;-0.60;1.00;;;;;;5024122;28;20465;-73
2021/03/06 07:39:05;;;;;;;7.77;6.93;;;-0.50;1.00;;;;;;5024500;28;20847;-72
2021/03/06 07:41:37;;;;;;;10.27;7.90;;;-0.30;1.00;;;;;;5018692;28;20958;-73
2021/03/06 07:44:04;;;;;;;8.97;7.13;;;-0.20;1.00;;;;;;5013449;28;21922;-72
2021/03/06 07:46:30;;;;;;;11.20;7.70;;;0.00;1.00;;;;;;5030128;28;20531;-72
2021/03/06 07:49:00;;;;;;;10.60;7.37;;;0.10;1.00;;;;;;5023135;28;20449;-73
2021/03/06 07:51:26;;;;;;;11.50;7.00;;;0.20;1.00;;;;;;5030689;28;20214;-73
2021/03/06 07:53:52;;;;;;;14.53;7.73;;;0.20;1.00;;;;;;5028619;28;20522;-73
2021/03/06 07:56:18;;;;;;;11.80;6.80;;;0.20;1.00;;;;;;5013685;28;20587;-73
2021/03/06 07:58:48;;;;;;;9.50;7.47;;;0.40;1.00;;;;;;5023778;28;20992;-73
2021/03/06 08:01:43;;;;;;;9.50;6.83;;;0.50;1.00;;;;;;5025496;28;20905;-73
2021/03/06 08:04:39;;;;;;;9.23;7.00;;;0.60;1.00;;;;;;5008845;28;20530;-73
2021/03/06 08:07:11;;;;;;;8.83;7.10;;;0.70;1.00;;;;;;5024389;28;20436;-73
2021/03/06 08:10:04;;;;;;;9.27;6.73;;;0.80;1.00;;;;;;5016412;28;21033;-73
2021/03/06 08:12:34;;;;;;;10.10;6.60;;;0.90;1.00;;;;;;5001696;28;20491;-72
2021/03/06 08:15:22;;;;;;;9.00;5.87;;;0.90;1.00;;;;;;5025735;28;20477;-72
2021/03/06 08:17:48;;;;;;;12.13;6.90;;;1.00;1.00;;;;;;5031646;28;20480;-73
2021/03/06 08:20:31;;;;;;;16.40;7.07;;;1.00;1.00;;;;;;5032352;28;20455;-73
2021/03/06 08:23:23;;;;;;;9.40;6.60;;;1.00;1.00;;;;;;5017506;28;20184;-73
2021/03/06 08:26:18;;;;;;;11.73;5.73;;;1.20;1.00;;;;;;5018830;28;20454;-73
2021/03/06 08:28:44;;;;;;;9.57;5.90;;;1.20;1.00;;;;;;5017835;28;20505;-73
2021/03/06 08:31:38;;;;;;;9.63;5.07;;;1.30;1.00;;;;;;5021566;28;20462;-74
2021/03/06 08:34:36;;;;;;;7.30;5.20;;;1.40;1.00;;;;;;5020632;28;20560;-73
2021/03/06 08:37:29;;;;;;;7.07;6.00;;;1.50;1.00;;;;;;4952900;28;20450;-74
2021/03/06 08:39:58;;;;;;;12.23;6.20;;;1.60;1.00;;;;;;5018489;28;20997;-73
2021/03/06 08:42:32;;;;;;;7.50;5.30;;;1.70;1.00;;;;;;5018133;28;20533;-72
2021/03/06 08:45:00;;;;;;;6.50;5.07;;;1.70;1.00;;;;;;5017076;28;20538;-73
2021/03/06 08:47:33;;;;;;;7.30;5.77;;;1.90;1.00;;;;;;5021256;28;21010;-73
2021/03/06 08:50:03;;;;;;;11.90;6.40;;;2.00;1.00;;;;;;5024326;28;20481;-72
2021/03/06 08:52:29;;;;;;;9.40;6.40;;;2.00;1.00;;;;;;5027496;28;21463;-73
2021/03/06 08:54:57;;;;;;;16.00;6.87;;;2.10;1.00;;;;;;5024736;28;20476;-73
2021/03/06 08:57:26;;;;;;;12.50;6.43;;;2.20;1.00;;;;;;5025631;28;20865;-73
2021/03/06 08:59:53;;;;;;;9.40;6.50;;;2.30;1.00;;;;;;5016384;28;20449;-73
2021/03/06 09:02:37;;;;;;;10.23;6.37;;;2.40;1.00;;;;;;5024283;28;21450;-73
2021/03/06 09:05:29;;;;;;;10.03;6.07;;;2.50;1.00;;;;;;5020552;28;20852;-73
2021/03/06 09:07:56;;;;;;;10.67;6.27;;;2.50;1.00;;;;;;5028269;28;20443;-73
2021/03/06 09:10:44;;;;;;;11.13;5.77;;;2.60;1.00;;;;;;5008423;28;21396;-73
2021/03/06 09:13:14;;;;;;;8.93;5.47;;;2.70;1.00;;;;;;5028567;28;21045;-73
2021/03/06 09:15:49;;;;;;;8.37;6.23;;;2.80;1.00;;;;;;5026256;28;21127;-73
2021/03/06 09:18:26;;;;;;;9.93;6.33;;;2.80;1.00;;;;;;5029750;28;20515;-73
2021/03/06 09:21:04;;;;;;;13.20;6.53;;;2.80;1.00;;;;;;5025803;28;20865;-73
2021/03/06 09:23:31;;;;;;;14.97;5.70;;;3.00;1.00;;;;;;5024968;28;20533;-73
2021/03/06 09:26:01;;;;;;;10.23;6.10;;;3.00;1.00;;;;;;5027471;28;20645;-73
2021/03/06 09:28:28;;;;;;;8.73;6.57;;;3.10;1.00;;;;;;5026102;28;20722;-73
2021/03/06 09:30:56;;;;;;;12.93;5.93;;;3.10;1.00;;;;;;5021065;28;20503;-73
2021/03/06 09:33:36;;;;;;;8.63;5.40;;;3.20;1.00;;;;;;5030090;28;20747;-73
2021/03/06 09:36:13;;;;;;;6.67;4.80;;;3.30;1.00;;;;;;5026756;28;20481;-73
2021/03/06 09:38:45;;;;;;;11.33;4.60;;;3.40;1.00;;;;;;5027333;28;20455;-73
2021/03/06 09:41:14;;;;;;;7.80;4.30;;;3.50;1.00;;;;;;5026047;28;20471;-72
2021/03/06 09:43:41;;;;;;;13.00;5.23;;;3.60;1.00;;;;;;5008405;28;20863;-73
2021/03/06 09:46:25;;;;;;;6.37;4.80;;;3.60;1.00;;;;;;5027017;28;20495;-72
2021/03/06 09:48:57;;;;;;;8.90;4.30;;;3.60;1.00;;;;;;5026531;28;21046;-72
2021/03/06 09:51:36;;;;;;;7.27;5.70;;;3.70;1.00;;;;;;5026473;28;20444;-73
2021/03/06 09:54:01;;;;;;;9.40;5.33;;;3.70;1.00;;;;;;5027443;28;20472;-72
2021/03/06 09:56:28;;;;;;;5.77;5.10;;;3.80;1.00;;;;;;5020297;28;20493;-73
2021/03/06 09:58:59;;;;;;;8.57;5.60;;;3.80;1.00;;;;;;5019230;28;20583;-73
2021/03/06 10:01:25;;;;;;;6.90;4.67;;;3.90;1.00;;;;;;5024282;28;20543;-72
2021/03/06 10:03:51;;;;;;;5.70;4.73;;;4.00;1.00;;;;;;5025382;28;20444;-72
2021/03/06 10:06:20;;;;;;;5.13;4.40;;;4.10;1.00;;;;;;5022474;28;20582;-73
2021/03/06 10:08:55;;;;;;;6.13;5.53;;;4.20;1.00;;;;;;5023924;28;20865;-73
2021/03/06 10:11:29;;;;;;;3.90;3.50;;;4.10;1.00;;;;;;5025076;28;20817;-72
2021/03/06 10:13:56;;;;;;;13.10;4.83;;;4.10;1.00;;;;;;5029291;28;20852;-73
2021/03/06 10:16:22;;;;;;;5.93;5.03;;;4.20;1.00;;;;;;5022921;28;21046;-73
2021/03/06 10:18:48;;;;;;;12.90;3.80;;;4.20;1.00;;;;;;5023512;28;22063;-73
2021/03/06 10:21:18;;;;;;;7.50;3.90;;;4.30;1.00;;;;;;5023748;28;20452;-72
2021/03/06 10:23:45;;;;;;;7.93;4.07;;;4.30;1.00;;;;;;5020193;28;20513;-73
2021/03/06 10:26:24;;;;;;;10.57;4.57;;;4.40;1.00;;;;;;5015619;28;21057;-73
2021/03/06 10:28:55;;;;;;;6.03;3.97;;;4.50;1.00;;;;;;5023769;28;20533;-73
2021/03/06 10:31:38;;;;;;;5.67;4.50;;;4.40;1.00;;;;;;5020700;28;20563;-73
2021/03/06 10:34:41;;;;;;;14.63;4.83;;;4.50;1.00;;;;;;5019797;28;21056;-73
2021/03/06 10:37:14;;;;;;;11.73;4.10;;;4.60;1.00;;;;;;4946754;28;21231;-73
2021/03/06 10:39:53;;;;;;;15.33;5.47;;;4.60;1.00;;;;;;5009081;28;20819;-73
2021/03/06 10:42:20;;;;;;;8.37;5.20;;;4.60;1.00;;;;;;5029418;28;20460;-73
2021/03/06 10:44:46;;;;;;;9.17;5.90;;;4.60;1.00;;;;;;5011744;28;20457;-73
2021/03/06 10:47:12;;;;;;;12.10;5.87;;;4.80;1.00;;;;;;5020409;28;20449;-73
2021/03/06 10:49:45;;;;;;;8.90;5.50;;;4.80;1.00;;;;;;5025172;28;20499;-73
2021/03/06 10:52:29;;;;;;;7.03;5.43;;;5.00;1.00;;;;;;5021612;28;20463;-73
2021/03/06 10:54:57;;;;;;;10.67;4.70;;;5.00;1.00;;;;;;5009543;28;20521;-73
2021/03/06 10:57:24;;;;;;;11.73;5.10;;;5.00;1.00;;;;;;5013766;28;21023;-73
2021/03/06 10:59:50;;;;;;;9.20;6.43;;;5.10;1.00;;;;;;5015611;28;21526;-73
2021/03/06 11:02:32;;;;;;;7.73;5.70;;;5.10;1.00;;;;;;5013297;28;20441;-73
2021/03/06 11:05:20;;;;;;;6.30;3.80;;;5.20;1.00;;;;;;5027920;28;20614;-73
2021/03/06 11:07:46;;;;;;;8.07;4.60;;;5.10;1.00;;;;;;5012178;28;20451;-73
2021/03/06 11:10:14;;;;;;;5.90;3.70;;;5.00;1.00;;;;;;5027043;28;21087;-73
2021/03/06 11:12:50;;;;;;;8.43;4.70;;;5.10;1.00;;;;;;5029296;28;20837;-73
2021/03/06 11:15:18;;;;;;;7.50;4.10;;;5.10;1.00;;;;;;5022957;28;20473;-73
2021/03/06 11:17:45;;;;;;;6.10;4.40;;;5.10;1.00;;;;;;5026732;28;20476;-73
2021/03/06 11:20:14;;;;;;;7.77;4.47;;;5.20;1.00;;;;;;5034667;28;20805;-73
2021/03/06 11:22:41;;;;;;;7.53;3.83;;;5.20;1.00;;;;;;5024335;28;20843;-73
2021/03/06 11:25:09;;;;;;;8.40;3.23;;;5.30;1.00;;;;;;5030469;28;20491;-74
2021/03/06 11:27:46;;;;;;;5.53;3.73;;;5.30;1.00;;;;;;5017518;28;20532;-73
2021/03/06 11:30:14;;;;;;;6.77;3.70;;;5.20;1.00;;;;;;5032521;28;20840;-73
2021/03/06 11:32:40;;;;;;;8.27;3.77;;;5.20;1.00;;;;;;5026079;28;20461;-73
2021/03/06 11:35:07;;;;;;;11.53;3.67;;;5.30;1.00;;;;;;5025610;28;20512;-73
2021/03/06 11:37:33;;;;;;;7.57;3.67;;;5.40;1.00;;;;;;5027679;28;20879;-72
2021/03/06 11:39:58;;;;;;;6.37;2.70;;;5.40;1.00;;;;;;5022900;28;20600;-73
2021/03/06 11:42:25;;;;;;;8.43;4.37;;;5.50;1.00;;;;;;5024450;28;21220;-73
2021/03/06 11:44:50;;;;;;;8.63;3.50;;;5.50;1.00;;;;;;5013064;28;20307;-73
2021/03/06 11:47:16;;;;;;;4.60;3.30;;;5.40;1.00;;;;;;5020214;28;20883;-73
2021/03/06 11:49:41;;;;;;;11.47;2.90;;;5.40;1.00;;;;;;5024014;28;20746;-73
2021/03/06 11:52:07;;;;;;;17.53;3.60;;;5.40;1.00;;;;;;5021253;28;20190;-73
2021/03/06 11:54:33;;;;;;;7.07;2.97;;;5.40;1.00;;;;;;5018599;28;25219;-73
2021/03/06 11:56:58;;;;;;;6.73;3.10;;;5.40;1.00;;;;;;5020652;28;20863;-73
2021/03/06 11:59:24;;;;;;;5.13;2.97;;;5.60;1.00;;;;;;5013000;28;20192;-73
2021/03/06 12:01:50;;;;;;;5.20;3.40;;;5.50;1.00;;;;;;5017836;28;20589;-73
2021/03/06 12:04:16;;;;;;;6.57;3.30;;;5.40;1.00;;;;;;5021980;28;20959;-73
2021/03/06 12:06:41;;;;;;;7.47;3.30;;;5.40;1.00;;;;;;5015318;28;20223;-73
2021/03/06 12:09:07;;;;;;;8.03;3.50;;;5.50;1.00;;;;;;5011949;28;20265;-73
2021/03/06 12:11:33;;;;;;;6.43;3.30;;;5.50;1.00;;;;;;5019408;28;20176;-73
2021/03/06 12:13:59;;;;;;;6.33;3.87;;;5.50;1.00;;;;;;5025011;28;20194;-73
2021/03/06 12:16:25;;;;;;;6.33;4.20;;;5.60;1.00;;;;;;5027752;28;20482;-73
2021/03/06 12:18:50;;;;;;;8.00;3.20;;;5.60;1.00;;;;;;5004237;28;20724;-73
2021/03/06 12:21:16;;;;;;;3.90;2.60;;;5.70;1.00;;;;;;5015866;28;20452;-73
2021/03/06 12:23:42;;;;;;;8.47;3.43;;;5.70;1.00;;;;;;5018097;28;20807;-73
2021/03/06 12:26:09;;;;;;;5.47;2.37;;;5.50;1.00;;;;;;5016184;28;20290;-73
2021/03/06 12:28:35;;;;;;;7.47;3.50;;;5.50;1.00;;;;;;5020429;28;20750;-73
2021/03/06 12:31:01;;;;;;;5.30;3.07;;;5.60;1.00;;;;;;5013684;28;21364;-74
2021/03/06 12:33:26;;;;;;;9.63;3.83;;;5.60;1.00;;;;;;5020804;28;20487;-73
2021/03/06 12:35:52;;;;;;;4.57;2.57;;;5.60;1.00;;;;;;5020127;28;20207;-73
2021/03/06 12:38:18;;;;;;;7.80;3.00;;;5.60;1.00;;;;;;5017118;28;20746;-73
2021/03/06 12:40:43;;;;;;;5.50;2.83;;;5.60;1.00;;;;;;5015304;28;20846;-73
2021/03/06 12:43:09;;;;;;;5.33;2.60;;;5.60;1.00;;;;;;5023224;28;20636;-73
2021/03/06 12:45:35;;;;;;;4.30;2.40;;;5.60;1.00;;;;;;5021535;28;20893;-73
2021/03/06 12:48:01;;;;;;;4.57;3.33;;;5.60;1.00;;;;;;5014862;28;21005;-73
2021/03/06 12:50:27;;;;;;;5.70;3.07;;;5.60;1.00;;;;;;5005595;28;20206;-73
2021/03/06 12:52:52;;;;;;;5.07;3.57;;;5.60;1.00;;;;;;5011363;28;21384;-74
2021/03/06 12:55:18;;;;;;;4.00;2.47;;;5.70;1.00;;;;;;4988265;28;20305;-73
2021/03/06 12:57:44;;;;;;;7.73;2.90;;;5.60;1.00;;;;;;5005327;28;20202;-73
2021/03/06 13:00:10;;;;;;;5.60;3.10;;;5.60;1.00;;;;;;5016043;28;20209;-73
2021/03/06 13:02:36;;;;;;;9.53;2.80;;;5.60;1.00;;;;;;5023979;28;20206;-73
2021/03/06 13:05:02;;;;;;;10.23;3.00;;;5.70;1.00;;;;;;5031201;28;20450;-73
2021/03/06 13:07:28;;;;;;;3.87;2.80;;;5.70;1.00;;;;;;5013611;28;20451;-73
2021/03/06 13:09:54;;;;;;;6.93;3.40;;;5.70;1.00;;;;;;5012773;28;20668;-73
2021/03/06 13:12:20;;;;;;;9.43;3.50;;;5.70;1.00;;;;;;4996270;28;20187;-73